Atlanta, Texas
Current Conditions -  °F | °C
As of 6:53 PM on Tuesday 25 Nov 2014 (Local Time) from KTXK Reporting Station
Clear Clear  
Wind Chill: 45°   Ceiling: Unl
Heat Index: 47°   Visibility: 10mi
Dew Point: 31°   Wind: 5mph
Humidity: 54%   Direction: 140°SE
Pressure: 30.18"   Gusts: NA
Location:  33.12°N, 94.17°W
Report Text: KTXK 260053Z 14004KT 10SM CLR 08/M01 A3018 RMK AO2 SLP219 T00831006
Loading
Personal Weather Stations






























Interactive Weather Map New forecast layout! Learn more

10-Day Weather Forecast

Advertisements
Track Severe Weather on mobile